createdAt,value
2018-12-23T00:00:18.074Z,49.24
2018-12-23T00:01:17.982Z,49.16
2018-12-23T00:02:17.682Z,49.21
2018-12-23T00:03:18.301Z,49.22
2018-12-23T00:04:18.014Z,49.22
2018-12-23T00:05:16.900Z,49.21
2018-12-23T00:06:18.229Z,49.23
2018-12-23T00:07:17.663Z,49.18
2018-12-23T00:08:17.881Z,49.28
2018-12-23T00:09:17.773Z,49.23
2018-12-23T00:10:17.981Z,49.25
2018-12-23T00:11:17.707Z,49.26
2018-12-23T00:12:17.822Z,49.22
2018-12-23T00:13:17.864Z,49.3
2018-12-23T00:14:18.359Z,49.26
2018-12-23T00:15:18.335Z,49.26
2018-12-23T00:16:18.045Z,49.3
2018-12-23T00:17:18.115Z,49.24
2018-12-23T00:18:18.522Z,49.26
2018-12-23T00:19:18.115Z,49.26
2018-12-23T00:20:17.978Z,49.28
2018-12-23T00:21:16.894Z,49.26
2018-12-23T00:22:18.032Z,49.33
2018-12-23T00:23:17.740Z,49.26
2018-12-23T00:24:17.994Z,49.33
2018-12-23T00:25:18.048Z,49.33
2018-12-23T00:26:18.442Z,49.3
2018-12-23T00:27:17.899Z,49.35
2018-12-23T00:28:18.279Z,49.34
2018-12-23T00:29:17.972Z,49.33
2018-12-23T00:30:17.912Z,49.32
2018-12-23T00:31:18.149Z,49.33
2018-12-23T00:32:18.894Z,49.33
2018-12-23T00:33:18.338Z,49.31
2018-12-23T00:34:17.883Z,49.34
2018-12-23T00:35:21.061Z,49.32
2018-12-23T00:36:18.694Z,49.34
2018-12-23T00:37:17.662Z,49.32
2018-12-23T00:38:17.240Z,49.34
2018-12-23T00:39:17.552Z,49.35
2018-12-23T00:40:18.032Z,49.35
2018-12-23T00:41:18.705Z,49.36
2018-12-23T00:42:19.435Z,49.35
2018-12-23T00:43:17.978Z,49.32
2018-12-23T00:44:18.308Z,49.36
2018-12-23T00:45:17.136Z,49.38
2018-12-23T00:46:17.073Z,49.36
2018-12-23T00:47:18.055Z,49.34
2018-12-23T00:48:18.021Z,49.37
2018-12-23T00:49:18.377Z,49.37
2018-12-23T00:50:17.770Z,49.39
2018-12-23T00:51:18.224Z,49.4
2018-12-23T00:52:18.669Z,49.44
2018-12-23T00:53:18.818Z,49.33
2018-12-23T00:54:17.915Z,49.38
2018-12-23T00:55:17.927Z,49.39
2018-12-23T00:56:18.546Z,49.4
2018-12-23T00:57:19.755Z,49.39
2018-12-23T00:58:18.495Z,49.45
2018-12-23T00:59:18.791Z,49.38
2018-12-23T01:00:18.559Z,49.46
2018-12-23T01:01:18.078Z,49.43
2018-12-23T01:02:18.509Z,49.45
2018-12-23T01:03:18.411Z,49.4
2018-12-23T01:04:18.437Z,49.41
2018-12-23T01:05:19.179Z,49.45
2018-12-23T01:06:19.424Z,49.42
2018-12-23T01:07:19.331Z,49.44
2018-12-23T01:08:18.754Z,49.41
2018-12-23T01:09:17.885Z,49.41
2018-12-23T01:10:18.814Z,49.45
2018-12-23T01:11:18.534Z,49.42
2018-12-23T01:12:18.549Z,49.41
2018-12-23T01:13:18.190Z,49.43
2018-12-23T01:14:18.007Z,49.41
2018-12-23T01:15:17.743Z,49.43
2018-12-23T01:16:17.995Z,49.41
2018-12-23T01:17:17.996Z,49.4
2018-12-23T01:18:17.401Z,49.45
2018-12-23T01:19:17.373Z,49.41
2018-12-23T01:20:18.547Z,49.44
2018-12-23T01:21:17.780Z,49.44
2018-12-23T01:22:18.160Z,49.41
2018-12-23T01:23:18.778Z,49.44
2018-12-23T01:24:18.110Z,49.43
2018-12-23T01:25:18.665Z,49.47
2018-12-23T01:26:18.218Z,49.44
2018-12-23T01:27:18.351Z,49.46
2018-12-23T01:28:18.733Z,49.41
2018-12-23T01:29:17.979Z,49.43
2018-12-23T01:30:18.278Z,49.41
2018-12-23T01:31:17.430Z,49.39
2018-12-23T01:32:18.375Z,49.45
2018-12-23T01:33:19.305Z,49.44
2018-12-23T01:34:18.823Z,49.42
2018-12-23T01:35:17.912Z,49.43
2018-12-23T01:36:18.035Z,49.43
2018-12-23T01:37:18.026Z,49.48
2018-12-23T01:38:18.244Z,49.44
2018-12-23T01:39:18.008Z,49.47
2018-12-23T01:40:17.036Z,49.44
2018-12-23T01:41:18.481Z,49.46
2018-12-23T01:42:18.037Z,49.47
2018-12-23T01:43:18.249Z,49.48
2018-12-23T01:44:17.730Z,49.47
2018-12-23T01:45:18.631Z,49.49
2018-12-23T01:46:17.965Z,49.44
2018-12-23T01:47:17.942Z,49.48
2018-12-23T01:48:17.693Z,49.51
2018-12-23T01:49:17.933Z,49.49
2018-12-23T01:50:18.067Z,49.47
2018-12-23T01:51:18.577Z,49.49
2018-12-23T01:52:18.526Z,49.45
2018-12-23T01:53:18.350Z,49.44
2018-12-23T01:54:17.827Z,49.45
2018-12-23T01:55:18.231Z,49.46
2018-12-23T01:56:17.955Z,49.52
2018-12-23T01:57:17.817Z,49.48
2018-12-23T01:58:18.241Z,49.48
2018-12-23T01:59:17.985Z,49.48
2018-12-23T02:00:17.715Z,49.44
2018-12-23T02:01:17.755Z,49.5
2018-12-23T02:02:19.024Z,49.48
2018-12-23T02:03:18.198Z,49.49
2018-12-23T02:04:17.958Z,49.52
2018-12-23T02:05:17.854Z,49.5
2018-12-23T02:06:18.408Z,49.47
2018-12-23T02:07:17.974Z,49.46
2018-12-23T02:08:17.470Z,49.49
2018-12-23T02:09:18.816Z,49.51
2018-12-23T02:10:19.082Z,49.54
2018-12-23T02:11:18.592Z,49.49
2018-12-23T02:12:18.104Z,49.48
2018-12-23T02:13:18.115Z,49.5
2018-12-23T02:14:18.094Z,49.49
2018-12-23T02:15:17.325Z,49.51
2018-12-23T02:16:18.644Z,49.47
2018-12-23T02:17:17.982Z,49.51
2018-12-23T02:18:18.766Z,49.49
2018-12-23T02:19:17.011Z,49.51
2018-12-23T02:20:18.043Z,49.5
2018-12-23T02:21:18.204Z,49.49
2018-12-23T02:22:17.599Z,49.49
2018-12-23T02:23:19.085Z,49.49
2018-12-23T02:24:18.856Z,49.5
2018-12-23T02:25:17.975Z,49.51
2018-12-23T02:26:18.716Z,49.53
2018-12-23T02:27:17.915Z,49.51
2018-12-23T02:28:17.721Z,49.5
2018-12-23T02:29:17.777Z,49.5
2018-12-23T02:30:17.646Z,49.48
2018-12-23T02:31:18.858Z,49.49
2018-12-23T02:32:17.908Z,49.5
2018-12-23T02:33:18.391Z,49.54
2018-12-23T02:34:18.061Z,49.52
2018-12-23T02:35:18.356Z,49.56
2018-12-23T02:36:17.848Z,49.53
2018-12-23T02:37:18.254Z,49.48
2018-12-23T02:38:18.123Z,49.46
2018-12-23T02:39:17.040Z,49.47
2018-12-23T02:40:18.180Z,49.47
2018-12-23T02:41:18.077Z,49.46
2018-12-23T02:42:18.097Z,49.51
2018-12-23T02:43:16.918Z,49.47
2018-12-23T02:44:17.835Z,49.46
2018-12-23T02:45:18.088Z,49.5
2018-12-23T02:46:17.756Z,49.41
2018-12-23T02:47:18.208Z,49.48
2018-12-23T02:48:18.743Z,49.49
2018-12-23T02:49:17.727Z,49.49
2018-12-23T02:50:18.275Z,49.47
2018-12-23T02:51:17.979Z,49.48
2018-12-23T02:52:17.182Z,49.49
2018-12-23T02:53:17.975Z,49.45
2018-12-23T02:54:18.252Z,49.49
2018-12-23T02:55:17.752Z,49.44
2018-12-23T02:56:18.209Z,49.49
2018-12-23T02:57:17.914Z,49.5
2018-12-23T02:58:17.671Z,49.48
2018-12-23T02:59:17.905Z,49.48
2018-12-23T03:00:17.291Z,49.5
2018-12-23T03:01:17.973Z,49.51
2018-12-23T03:02:18.155Z,49.49
2018-12-23T03:03:17.057Z,49.51
2018-12-23T03:04:18.613Z,49.5
2018-12-23T03:05:17.647Z,49.52
2018-12-23T03:06:17.947Z,49.55
2018-12-23T03:07:18.079Z,49.5
2018-12-23T03:08:17.757Z,49.56
2018-12-23T03:09:17.968Z,49.56
2018-12-23T03:10:18.306Z,49.56
2018-12-23T03:11:18.134Z,49.58
2018-12-23T03:12:18.339Z,49.58
2018-12-23T03:13:18.048Z,49.55
2018-12-23T03:14:18.262Z,49.56
2018-12-23T03:15:17.483Z,49.54
2018-12-23T03:16:18.113Z,49.54
2018-12-23T03:17:18.109Z,49.52
2018-12-23T03:18:17.728Z,49.56
2018-12-23T03:19:18.022Z,49.58
2018-12-23T03:20:19.173Z,49.52
2018-12-23T03:21:17.989Z,49.59
2018-12-23T03:22:18.042Z,49.54
2018-12-23T03:23:17.950Z,49.54
2018-12-23T03:24:16.917Z,49.55
2018-12-23T03:25:18.229Z,49.54
2018-12-23T03:26:17.969Z,49.55
2018-12-23T03:27:17.875Z,49.56
2018-12-23T03:28:17.959Z,49.6
2018-12-23T03:29:17.788Z,49.54
2018-12-23T03:30:17.674Z,49.56
2018-12-23T03:31:17.940Z,49.59
2018-12-23T03:32:18.114Z,49.6
2018-12-23T03:33:18.082Z,49.57
2018-12-23T03:34:18.002Z,49.6
2018-12-23T03:35:18.052Z,49.56
2018-12-23T03:36:17.989Z,49.57
2018-12-23T03:37:18.056Z,49.59
2018-12-23T03:38:18.011Z,49.57
2018-12-23T03:39:18.070Z,49.58
2018-12-23T03:40:17.959Z,49.55
2018-12-23T03:41:17.768Z,49.56
2018-12-23T03:42:17.754Z,49.58
2018-12-23T03:43:17.698Z,49.56
2018-12-23T03:44:17.922Z,49.61
2018-12-23T03:45:17.575Z,49.57
2018-12-23T03:46:18.152Z,49.61
2018-12-23T03:47:17.639Z,49.61
2018-12-23T03:48:17.998Z,49.59
2018-12-23T03:49:17.917Z,49.61
2018-12-23T03:50:18.301Z,49.63
2018-12-23T03:51:18.173Z,49.61
2018-12-23T03:52:18.225Z,49.61
2018-12-23T03:53:18.319Z,49.59
2018-12-23T03:54:18.578Z,49.58
2018-12-23T03:55:17.857Z,49.54
2018-12-23T03:56:18.024Z,49.61
2018-12-23T03:57:17.986Z,49.57
2018-12-23T03:58:17.998Z,49.58
2018-12-23T03:59:17.708Z,49.53
2018-12-23T04:00:17.968Z,49.54
2018-12-23T04:01:17.044Z,49.58
2018-12-23T04:02:17.968Z,49.58
2018-12-23T04:03:17.717Z,49.58
2018-12-23T04:04:18.160Z,49.61
2018-12-23T04:05:18.132Z,49.62
2018-12-23T04:06:25.264Z,49.57
2018-12-23T04:07:18.180Z,49.57
2018-12-23T04:08:17.884Z,49.58
2018-12-23T04:09:18.048Z,49.58
2018-12-23T04:10:18.310Z,49.6
2018-12-23T04:11:18.031Z,49.59
2018-12-23T04:12:17.990Z,49.61
2018-12-23T04:13:18.020Z,49.6
2018-12-23T04:14:17.784Z,49.59
2018-12-23T04:15:17.639Z,49.59
2018-12-23T04:16:18.119Z,49.57
2018-12-23T04:17:18.010Z,49.54
2018-12-23T04:18:17.849Z,49.55
2018-12-23T04:19:18.018Z,49.64
2018-12-23T04:20:17.968Z,49.61
2018-12-23T04:21:17.605Z,49.56
2018-12-23T04:22:18.220Z,49.61
2018-12-23T04:23:17.951Z,49.6
2018-12-23T04:24:18.150Z,49.6
2018-12-23T04:25:18.103Z,49.62
2018-12-23T04:26:17.830Z,49.63
2018-12-23T04:27:17.605Z,49.62
2018-12-23T04:28:18.100Z,49.61
2018-12-23T04:29:17.827Z,49.63
2018-12-23T04:30:18.074Z,49.65
2018-12-23T04:31:17.514Z,49.64
2018-12-23T04:32:17.786Z,49.64
2018-12-23T04:33:18.121Z,49.64
2018-12-23T04:34:17.738Z,49.64
2018-12-23T04:35:18.366Z,49.64
2018-12-23T04:36:17.800Z,49.63
2018-12-23T04:37:18.091Z,49.59
2018-12-23T04:38:18.612Z,49.61
2018-12-23T04:39:18.464Z,49.61
2018-12-23T04:40:18.340Z,49.6
2018-12-23T04:41:18.304Z,49.6
2018-12-23T04:42:18.323Z,49.6
2018-12-23T04:43:17.980Z,49.58
2018-12-23T04:44:18.034Z,49.62
2018-12-23T04:45:17.950Z,49.6
2018-12-23T04:46:18.031Z,49.61
2018-12-23T04:47:18.200Z,49.6
2018-12-23T04:48:18.148Z,49.6
2018-12-23T04:49:18.130Z,49.53
2018-12-23T04:50:17.892Z,49.53
2018-12-23T04:51:18.144Z,49.54
2018-12-23T04:52:17.932Z,49.54
2018-12-23T04:53:18.592Z,49.49
2018-12-23T04:54:17.496Z,49.51
2018-12-23T04:55:17.980Z,49.52
2018-12-23T04:56:18.329Z,49.49
2018-12-23T04:57:18.274Z,49.47
2018-12-23T04:58:18.055Z,49.42
2018-12-23T04:59:18.019Z,49.41
2018-12-23T05:00:18.285Z,49.4
2018-12-23T05:01:17.698Z,49.43
2018-12-23T05:02:18.438Z,49.4
2018-12-23T05:03:22.897Z,49.41
2018-12-23T05:04:17.893Z,49.34
2018-12-23T05:05:18.035Z,49.39
2018-12-23T05:06:18.301Z,49.32
2018-12-23T05:07:17.875Z,49.31
2018-12-23T05:08:17.837Z,49.3
2018-12-23T05:09:17.884Z,49.31
2018-12-23T05:10:17.794Z,49.2
2018-12-23T05:11:18.071Z,49.27
2018-12-23T05:12:18.031Z,49.27
2018-12-23T05:13:18.020Z,49.29
2018-12-23T05:14:18.042Z,49.26
2018-12-23T05:15:17.197Z,49.22
2018-12-23T05:16:18.061Z,49.28
2018-12-23T05:17:18.004Z,49.27
2018-12-23T05:18:18.298Z,49.2
2018-12-23T05:19:18.298Z,49.13
2018-12-23T05:20:17.711Z,49.18
2018-12-23T05:21:18.481Z,49.24
2018-12-23T05:22:18.023Z,49.22
2018-12-23T05:23:18.193Z,49.24
2018-12-23T05:24:17.896Z,49.21
2018-12-23T05:25:17.712Z,49.21
2018-12-23T05:26:17.953Z,49.23
2018-12-23T05:27:16.890Z,49.13
2018-12-23T05:28:17.661Z,49.14
2018-12-23T05:29:17.764Z,49.19
2018-12-23T05:30:18.088Z,49.17
2018-12-23T05:31:17.003Z,49.27
2018-12-23T05:32:18.213Z,49.2
2018-12-23T05:33:18.125Z,49.19
2018-12-23T05:34:17.881Z,49.16
2018-12-23T05:35:17.813Z,49.17
2018-12-23T05:36:18.105Z,49.17
2018-12-23T05:37:17.875Z,49.2
2018-12-23T05:38:18.030Z,49.27
2018-12-23T05:39:18.038Z,49.28
2018-12-23T05:40:18.256Z,49.23
2018-12-23T05:41:17.990Z,49.27
2018-12-23T05:42:17.993Z,49.21
2018-12-23T05:43:17.456Z,49.23
2018-12-23T05:44:18.266Z,49.23
2018-12-23T05:45:17.735Z,49.23
2018-12-23T05:46:17.944Z,49.22
2018-12-23T05:47:18.040Z,49.2
2018-12-23T05:48:17.912Z,49.26
2018-12-23T05:49:17.639Z,49.23
2018-12-23T05:50:17.631Z,49.24
2018-12-23T05:51:18.237Z,49.23
2018-12-23T05:52:17.844Z,49.28
2018-12-23T05:53:17.561Z,49.24
2018-12-23T05:54:17.802Z,49.24
2018-12-23T05:55:17.623Z,49.26
2018-12-23T05:56:18.047Z,49.22
2018-12-23T05:57:18.069Z,49.23
2018-12-23T05:58:18.238Z,49.19
2018-12-23T05:59:17.861Z,49.23
2018-12-23T06:00:18.206Z,49.22
2018-12-23T06:01:17.949Z,49.2
2018-12-23T06:02:17.963Z,49.18
2018-12-23T06:03:17.322Z,49.15
2018-12-23T06:04:17.951Z,49.24
2018-12-23T06:05:17.940Z,49.17
2018-12-23T06:06:17.935Z,49.2
2018-12-23T06:07:17.723Z,49.14
2018-12-23T06:08:17.920Z,49.14
2018-12-23T06:09:17.914Z,49.18
2018-12-23T06:10:17.644Z,49.14
2018-12-23T06:11:18.012Z,49.16
2018-12-23T06:12:17.992Z,49.12
2018-12-23T06:13:17.569Z,49.11
2018-12-23T06:14:18.027Z,49.13
2018-12-23T06:15:17.658Z,49.15
2018-12-23T06:16:17.835Z,49.12
2018-12-23T06:17:19.894Z,49.1
2018-12-23T06:18:18.268Z,49.14
2018-12-23T06:19:18.036Z,49.1
2018-12-23T06:20:17.762Z,49.14
2018-12-23T06:21:18.216Z,49.07
2018-12-23T06:22:18.248Z,49.1
2018-12-23T06:23:18.176Z,49.09
2018-12-23T06:24:17.680Z,49.09
2018-12-23T06:25:17.900Z,49.03
2018-12-23T06:26:18.050Z,49.07
2018-12-23T06:27:17.874Z,49.11
2018-12-23T06:28:18.144Z,49.05
2018-12-23T06:29:17.590Z,49.03
2018-12-23T06:30:17.851Z,49.06
2018-12-23T06:31:18.427Z,49.01
2018-12-23T06:32:17.607Z,49.03
2018-12-23T06:33:16.620Z,49.03
2018-12-23T06:34:17.948Z,48.98
2018-12-23T06:35:18.130Z,49.05
2018-12-23T06:36:17.857Z,49.04
2018-12-23T06:37:17.645Z,48.99
2018-12-23T06:38:17.690Z,48.99
2018-12-23T06:39:18.058Z,48.99
2018-12-23T06:40:18.046Z,48.99
2018-12-23T06:41:18.041Z,48.99
2018-12-23T06:42:17.995Z,49.02
2018-12-23T06:43:17.991Z,48.92
2018-12-23T06:44:17.459Z,48.98
2018-12-23T06:45:17.991Z,48.96
2018-12-23T06:46:17.582Z,48.98
2018-12-23T06:47:17.832Z,48.97
2018-12-23T06:48:18.187Z,48.94
2018-12-23T06:49:17.936Z,48.93
2018-12-23T06:50:17.671Z,48.95
2018-12-23T06:51:17.812Z,48.92
2018-12-23T06:52:17.886Z,48.93
2018-12-23T06:53:17.882Z,48.92
2018-12-23T06:54:18.091Z,48.95
2018-12-23T06:55:18.162Z,48.94
2018-12-23T06:56:17.870Z,48.91
2018-12-23T06:57:18.112Z,48.9
2018-12-23T06:58:17.563Z,48.9
2018-12-23T06:59:17.755Z,48.89
2018-12-23T07:00:17.789Z,48.93
2018-12-23T07:01:17.766Z,48.93
2018-12-23T07:02:17.998Z,48.9
2018-12-23T07:03:17.951Z,48.93
2018-12-23T07:04:18.242Z,48.9
2018-12-23T07:05:17.942Z,48.88
2018-12-23T07:06:17.949Z,48.93
2018-12-23T07:07:19.358Z,48.92
2018-12-23T07:08:17.993Z,48.88
2018-12-23T07:09:17.642Z,48.88
2018-12-23T07:10:17.784Z,48.9
2018-12-23T07:11:18.617Z,48.91
2018-12-23T07:12:17.875Z,48.9
2018-12-23T07:13:17.609Z,48.89
2018-12-23T07:14:17.859Z,48.91
2018-12-23T07:15:17.204Z,48.91
2018-12-23T07:16:17.856Z,48.93
2018-12-23T07:17:17.491Z,48.86
2018-12-23T07:18:17.819Z,48.93
2018-12-23T07:19:18.048Z,48.91
2018-12-23T07:20:17.378Z,48.87
2018-12-23T07:21:17.690Z,48.88
2018-12-23T07:22:17.617Z,48.85
2018-12-23T07:23:17.862Z,48.84
2018-12-23T07:24:17.932Z,48.87
2018-12-23T07:25:17.957Z,48.85
2018-12-23T07:26:17.659Z,48.82
2018-12-23T07:27:17.824Z,48.88
2018-12-23T07:28:17.859Z,48.83
2018-12-23T07:29:18.067Z,48.85
2018-12-23T07:30:17.592Z,48.85
2018-12-23T07:31:17.829Z,48.85
2018-12-23T07:32:17.587Z,48.82
2018-12-23T07:33:17.581Z,48.83
2018-12-23T07:34:17.800Z,48.81
2018-12-23T07:35:17.566Z,48.81
2018-12-23T07:36:17.734Z,48.85
2018-12-23T07:37:17.768Z,48.77
2018-12-23T07:38:16.931Z,48.76
2018-12-23T07:39:17.713Z,48.79
2018-12-23T07:40:17.745Z,48.77
2018-12-23T07:41:17.974Z,48.8
2018-12-23T07:42:17.975Z,48.77
2018-12-23T07:43:17.977Z,48.76
2018-12-23T07:44:17.925Z,48.79
2018-12-23T07:45:18.054Z,48.73
2018-12-23T07:46:17.904Z,48.74
2018-12-23T07:47:18.197Z,48.72
2018-12-23T07:48:17.641Z,48.75
2018-12-23T07:49:18.183Z,48.75
2018-12-23T07:50:17.882Z,48.68
2018-12-23T07:51:17.519Z,48.73
2018-12-23T07:52:18.271Z,48.71
2018-12-23T07:53:17.579Z,48.72
2018-12-23T07:54:18.057Z,48.71
2018-12-23T07:55:17.794Z,48.7
2018-12-23T07:56:17.788Z,48.69
2018-12-23T07:57:22.105Z,48.66
2018-12-23T07:58:17.902Z,48.64
2018-12-23T07:59:17.690Z,48.69
2018-12-23T08:00:17.698Z,48.7
2018-12-23T08:01:17.656Z,48.69
2018-12-23T08:02:17.900Z,48.7
2018-12-23T08:03:17.649Z,48.66
2018-12-23T08:04:17.668Z,48.65
2018-12-23T08:05:17.705Z,48.65
2018-12-23T08:06:18.488Z,48.68
2018-12-23T08:07:17.559Z,48.66
2018-12-23T08:08:18.105Z,48.7
2018-12-23T08:09:17.846Z,48.65
2018-12-23T08:10:17.769Z,48.62
2018-12-23T08:11:17.995Z,48.65
2018-12-23T08:12:17.512Z,48.67
2018-12-23T08:13:17.615Z,48.65
2018-12-23T08:14:17.991Z,48.65
2018-12-23T08:15:18.093Z,48.66
2018-12-23T08:16:17.648Z,48.63
2018-12-23T08:17:18.002Z,48.62
2018-12-23T08:18:17.992Z,48.65
2018-12-23T08:19:18.387Z,48.61
2018-12-23T08:20:17.914Z,48.61
2018-12-23T08:21:17.677Z,48.62
2018-12-23T08:22:17.898Z,48.59
2018-12-23T08:23:17.857Z,48.57
2018-12-23T08:24:17.602Z,48.62
2018-12-23T08:25:17.665Z,48.6
2018-12-23T08:26:17.854Z,48.57
2018-12-23T08:27:17.568Z,48.58
2018-12-23T08:28:17.527Z,48.53
2018-12-23T08:29:17.786Z,48.55
2018-12-23T08:30:17.877Z,48.59
2018-12-23T08:31:17.751Z,48.55
2018-12-23T08:32:17.543Z,48.55
2018-12-23T08:33:17.367Z,48.57
2018-12-23T08:34:17.516Z,48.55
2018-12-23T08:35:18.234Z,48.5
2018-12-23T08:36:17.987Z,48.52
2018-12-23T08:37:17.658Z,48.5
2018-12-23T08:38:17.806Z,48.52
2018-12-23T08:39:17.957Z,48.51
2018-12-23T08:40:17.606Z,48.52
2018-12-23T08:41:17.899Z,48.53
2018-12-23T08:42:17.905Z,48.55
2018-12-23T08:43:17.896Z,48.55
2018-12-23T08:44:17.834Z,48.51
2018-12-23T08:45:17.872Z,48.51
2018-12-23T08:46:17.482Z,48.5
2018-12-23T08:47:17.853Z,48.49
2018-12-23T08:48:17.613Z,48.5
2018-12-23T08:49:18.547Z,48.49
2018-12-23T08:50:22.625Z,48.51
2018-12-23T08:51:17.542Z,48.49
2018-12-23T08:52:18.030Z,48.45
2018-12-23T08:53:17.136Z,48.48
2018-12-23T08:54:17.809Z,48.47
2018-12-23T08:55:16.920Z,48.46
2018-12-23T08:56:17.792Z,48.43
2018-12-23T08:57:17.802Z,48.48
2018-12-23T08:58:18.030Z,48.43
2018-12-23T08:59:18.025Z,48.49
2018-12-23T09:00:17.517Z,48.46
2018-12-23T09:01:17.997Z,48.45
2018-12-23T09:02:17.744Z,48.44
2018-12-23T09:03:19.437Z,48.47
2018-12-23T09:04:17.712Z,48.45
2018-12-23T09:05:17.956Z,48.42
2018-12-23T09:06:18.687Z,48.43
2018-12-23T09:07:17.908Z,48.4
2018-12-23T09:08:17.673Z,48.42
2018-12-23T09:09:18.174Z,48.37
2018-12-23T09:10:17.678Z,48.4
2018-12-23T09:11:17.898Z,48.42
2018-12-23T09:12:17.686Z,48.45
2018-12-23T09:13:17.490Z,48.4
2018-12-23T09:14:18.125Z,48.41
2018-12-23T09:15:17.623Z,48.4
2018-12-23T09:16:18.332Z,48.4
2018-12-23T09:17:17.964Z,48.42
2018-12-23T09:18:19.980Z,48.4
2018-12-23T09:19:17.978Z,48.36
2018-12-23T09:20:18.540Z,48.38
2018-12-23T09:21:17.793Z,48.34
2018-12-23T09:22:20.007Z,48.34
2018-12-23T09:23:17.963Z,48.34
2018-12-23T09:24:17.968Z,48.33
2018-12-23T09:25:17.699Z,48.33
2018-12-23T09:26:18.973Z,48.34
2018-12-23T09:27:18.957Z,48.34
2018-12-23T09:28:18.164Z,48.35
2018-12-23T09:29:17.898Z,48.33
2018-12-23T09:30:17.611Z,48.35
2018-12-23T09:31:17.882Z,48.33
2018-12-23T09:32:18.322Z,48.3
2018-12-23T09:33:17.887Z,48.35
2018-12-23T09:34:17.532Z,48.3
2018-12-23T09:35:18.545Z,48.33
2018-12-23T09:36:18.395Z,48.33
2018-12-23T09:37:18.030Z,48.29
2018-12-23T09:38:17.972Z,48.31
2018-12-23T09:39:18.442Z,48.36
2018-12-23T09:40:17.957Z,48.39
2018-12-23T09:41:16.802Z,48.56
2018-12-23T09:42:17.262Z,48.76
2018-12-23T09:43:17.626Z,48.65
2018-12-23T09:44:17.940Z,48.55
2018-12-23T09:45:17.704Z,48.52
2018-12-23T09:46:18.206Z,48.5
2018-12-23T09:47:18.091Z,48.47
2018-12-23T09:48:18.164Z,48.45
2018-12-23T09:49:18.043Z,48.33
2018-12-23T09:50:18.630Z,48.09
2018-12-23T09:51:17.592Z,48.09
2018-12-23T09:52:17.848Z,47.88
2018-12-23T09:53:17.840Z,47.71
2018-12-23T09:54:17.771Z,47.82
2018-12-23T09:55:17.552Z,48.56
2018-12-23T09:56:17.769Z,48.01
2018-12-23T09:57:17.750Z,48.03
2018-12-23T09:58:17.749Z,48.51
2018-12-23T09:59:17.685Z,48.3
2018-12-23T10:00:18.164Z,48.16
2018-12-23T10:01:17.939Z,48.06
2018-12-23T10:02:17.622Z,48.2
2018-12-23T10:03:17.858Z,48.12
2018-12-23T10:04:16.750Z,48.09
2018-12-23T10:05:17.657Z,48.13
2018-12-23T10:06:18.104Z,48.12
2018-12-23T10:07:17.927Z,48.33
2018-12-23T10:08:17.851Z,48.31
2018-12-23T10:09:17.619Z,48.02
2018-12-23T10:10:17.590Z,47.95
2018-12-23T10:11:17.566Z,48.05
2018-12-23T10:12:17.807Z,48.06
2018-12-23T10:13:17.810Z,48.23
2018-12-23T10:14:17.465Z,48.32
2018-12-23T10:15:17.999Z,48.34
2018-12-23T10:16:17.481Z,48.28
2018-12-23T10:17:17.736Z,48.16
2018-12-23T10:18:17.715Z,48.21
2018-12-23T10:19:17.712Z,48.24
2018-12-23T10:20:17.655Z,48.53
2018-12-23T10:21:17.635Z,48.8
2018-12-23T10:22:18.007Z,48.66
2018-12-23T10:23:17.586Z,48.65
2018-12-23T10:24:18.251Z,48.91
2018-12-23T10:25:17.816Z,49.44
2018-12-23T10:26:17.091Z,48.92
2018-12-23T10:27:18.137Z,49.01
2018-12-23T10:28:17.840Z,49.25
2018-12-23T10:29:17.797Z,49.06
2018-12-23T10:30:17.732Z,49.02
2018-12-23T10:31:18.005Z,48.96
2018-12-23T10:32:18.011Z,49.43
2018-12-23T10:33:18.005Z,49.28
2018-12-23T10:34:18.005Z,49.11
2018-12-23T10:35:17.866Z,49.05
2018-12-23T10:36:17.648Z,48.85
2018-12-23T10:37:17.736Z,48.69
2018-12-23T10:38:18.920Z,49.15
2018-12-23T10:39:17.815Z,49.03
2018-12-23T10:40:18.218Z,48.83
2018-12-23T10:41:17.812Z,49.18
2018-12-23T10:42:23.900Z,49.49
2018-12-23T10:43:23.339Z,48.74
2018-12-23T10:44:37.049Z,49.22
2018-12-23T10:45:35.678Z,48.93
2018-12-23T10:46:37.298Z,48.89
2018-12-23T10:47:36.749Z,48.78
2018-12-23T10:48:37.012Z,48.79
2018-12-23T10:49:37.733Z,48.85
2018-12-23T10:50:36.742Z,49.09
2018-12-23T10:51:21.565Z,48.9
2018-12-23T10:52:21.884Z,48.65
2018-12-23T10:53:40.739Z,48.67
2018-12-23T10:55:15.544Z,48.59
2018-12-23T10:56:15.548Z,48.46
2018-12-23T10:57:15.301Z,48.58
2018-12-23T10:58:15.040Z,48.58
2018-12-23T10:59:15.536Z,48.63
2018-12-23T11:00:15.806Z,48.51
2018-12-23T11:01:14.977Z,48.47
2018-12-23T11:02:15.289Z,48.53
2018-12-23T11:03:15.510Z,48.44
2018-12-23T11:04:15.290Z,48.37
2018-12-23T11:05:14.314Z,48.41
2018-12-23T11:06:15.301Z,48.35
2018-12-23T11:07:15.795Z,48.28
2018-12-23T11:26:48.988Z,48.44
2018-12-23T11:27:48.666Z,48.31
2018-12-23T11:28:48.666Z,48.25
2018-12-23T11:29:48.869Z,48.25
2018-12-23T11:30:48.664Z,48.26
2018-12-23T11:31:48.811Z,48.27
2018-12-23T11:32:48.817Z,48.22
2018-12-23T11:33:49.612Z,48.2
2018-12-23T11:34:48.837Z,48.24
2018-12-23T11:35:48.517Z,48.15
2018-12-23T11:36:49.032Z,48.36
2018-12-23T11:37:25.019Z,48.32
2018-12-23T11:38:25.487Z,48.33
2018-12-23T11:39:25.219Z,48.14
2018-12-23T11:40:24.961Z,48.43
2018-12-23T11:41:24.898Z,48.27
2018-12-23T11:42:25.129Z,48.1
2018-12-23T11:43:25.424Z,48.32
2018-12-23T11:51:53.339Z,47.33
2018-12-23T11:52:53.409Z,47.72
2018-12-23T11:53:53.599Z,47.56
2018-12-23T11:54:53.141Z,47.68
2018-12-23T11:55:53.426Z,47.62
2018-12-23T11:56:52.978Z,47.69
2018-12-23T11:57:53.570Z,47.65
2018-12-23T11:58:53.215Z,47.71
2018-12-23T11:59:53.723Z,47.71
2018-12-23T12:00:52.804Z,47.66
2018-12-23T12:02:16.269Z,47.64
2018-12-23T12:03:16.269Z,47.62
2018-12-23T12:04:16.263Z,47.63
2018-12-23T12:05:16.787Z,47.76
2018-12-23T12:06:16.307Z,47.94
2018-12-23T12:06:54.335Z,47.85
2018-12-23T12:07:54.304Z,47.83
2018-12-23T12:08:54.325Z,47.79
2018-12-23T12:09:54.284Z,47.78
2018-12-23T12:10:53.754Z,47.74
2018-12-23T12:11:54.285Z,47.76
2018-12-23T12:12:52.887Z,47.72
2018-12-23T12:13:53.987Z,47.74
2018-12-23T12:14:53.680Z,47.78
2018-12-23T12:15:54.416Z,47.73
2018-12-23T12:16:54.594Z,47.83
2018-12-23T12:17:59.236Z,47.87
2018-12-23T12:18:53.740Z,47.83
2018-12-23T12:19:54.330Z,47.82
2018-12-23T12:20:54.083Z,47.81
2018-12-23T12:21:53.949Z,47.94
2018-12-23T12:22:54.198Z,47.7
2018-12-23T12:23:53.443Z,47.78
2018-12-23T12:24:54.030Z,47.69
2018-12-23T12:25:54.303Z,47.61
2018-12-23T12:26:54.285Z,47.62
2018-12-23T12:27:54.336Z,47.7
2018-12-23T12:28:54.102Z,47.71
2018-12-23T12:29:54.155Z,47.69
2018-12-23T12:30:54.486Z,47.62
2018-12-23T12:31:54.401Z,47.66
2018-12-23T12:32:54.248Z,47.59
2018-12-23T12:33:54.541Z,47.67
2018-12-23T12:34:54.283Z,47.69
2018-12-23T12:35:54.293Z,47.67
2018-12-23T12:36:54.569Z,47.64
2018-12-23T12:37:54.432Z,47.66
2018-12-23T12:38:54.379Z,47.76
2018-12-23T12:39:53.871Z,47.6
2018-12-23T12:40:54.907Z,47.57
2018-12-23T12:41:54.442Z,47.57
2018-12-23T12:42:54.207Z,47.61
2018-12-23T12:43:53.991Z,47.58
2018-12-23T12:44:53.881Z,47.66
2018-12-23T12:46:01.148Z,47.57
2018-12-23T12:46:54.040Z,47.45
2018-12-23T12:47:54.518Z,47.45
2018-12-23T12:48:53.522Z,47.33
2018-12-23T12:49:54.132Z,47.57
2018-12-23T12:50:54.614Z,47.41
2018-12-23T12:51:54.409Z,47.5
2018-12-23T12:52:54.175Z,47.47
2018-12-23T12:53:53.909Z,47.41
2018-12-23T12:54:54.154Z,47.48
2018-12-23T12:55:54.187Z,47.42
2018-12-23T12:56:54.202Z,47.34
2018-12-23T12:57:54.505Z,47.39
2018-12-23T12:58:53.841Z,47.37
2018-12-23T12:59:53.765Z,47.42
2018-12-23T13:00:54.291Z,47.55
2018-12-23T13:01:54.072Z,47.5
2018-12-23T13:02:54.614Z,47.47
2018-12-23T13:03:54.628Z,47.28
2018-12-23T13:04:54.379Z,47.25
2018-12-23T13:05:54.400Z,47.7
2018-12-23T13:06:54.902Z,47.52
2018-12-23T13:07:54.429Z,47.27
2018-12-23T13:09:01.011Z,47.25
2018-12-23T13:09:53.453Z,47.14
2018-12-23T13:10:53.783Z,47.22
2018-12-23T13:11:54.222Z,47.28
2018-12-23T13:12:54.290Z,47.26
2018-12-23T13:13:53.648Z,47.11
2018-12-23T13:14:46.929Z,47.3
2018-12-23T13:15:46.896Z,47.25
2018-12-23T13:16:46.105Z,47.34
2018-12-23T13:17:46.502Z,47.42
2018-12-23T13:18:46.950Z,47.23
2018-12-23T13:19:47.156Z,47.31
2018-12-23T13:20:47.226Z,47.22
2018-12-23T13:21:46.925Z,47.2